Heat Index SAI AWOS Graphical Display Untitled Document
Bertrand Chaffee Hospital Heliport (2NK6) Springville, New York, USA
210
06:59
21/10/2014
03
N/A
VRB
29.78
N/A
1420
48(F), 9(C)
47(F), 8(C)
48 F
96%
BKN013 OVC017
7
-RA
0.03"
N/A
06:59 zulu Wind 210 at 03 Knots, Altimeter 29.78
METAR K2NK6 210659Z AUTO 21003KT V0RB 7SM -RA BKN013 OVC017 09/08 A2978 A02 P0003
METAR:
FAA Disclaimer--Advisory Use ONLY, not for flight info--
INFO:
Wind Direction:
Wind Speed:
Wind Gust:
Wind Variable:
Altimeter:
Dens Alt:
Elev:
Temp:
Dwpt:
Wind Chill
Rel Humidity:
Ceiling:
Visibility:
Prsnt Wea:
PCPN:
Remarks:
How to read the WebPage